createdAt,value
2018-02-05T00:01:22.878Z,14.70
2018-02-05T00:03:50.322Z,14.30
2018-02-05T00:06:18.539Z,13.53
2018-02-05T00:08:45.983Z,13.13
2018-02-05T00:11:13.422Z,15.27
2018-02-05T00:13:40.863Z,14.90
2018-02-05T00:16:09.079Z,13.97
2018-02-05T00:18:36.510Z,16.10
2018-02-05T00:21:03.959Z,14.70
2018-02-05T00:23:31.398Z,14.30
2018-02-05T00:25:59.607Z,13.60
2018-02-05T00:28:27.815Z,15.30
2018-02-05T00:30:55.259Z,16.97
2018-02-05T00:33:22.699Z,16.70
2018-02-05T00:35:50.142Z,17.00
2018-02-05T00:38:18.346Z,17.40
2018-02-05T00:40:46.555Z,19.90
2018-02-05T00:43:14.053Z,20.63
2018-02-05T00:45:41.439Z,22.80
2018-02-05T00:48:08.874Z,24.40
2018-02-05T00:50:37.092Z,26.70
2018-02-05T00:53:04.527Z,26.27
2018-02-05T00:55:31.967Z,23.97
2018-02-05T00:57:59.407Z,28.27
2018-02-05T01:00:27.615Z,27.43
2018-02-05T01:02:55.823Z,26.00
2018-02-05T01:05:24.035Z,28.67
2018-02-05T01:07:51.479Z,29.27
2018-02-05T01:10:18.918Z,26.20
2018-02-05T01:12:46.354Z,27.20
2018-02-05T01:15:14.575Z,30.73
2018-02-05T01:17:42.270Z,28.37
2018-02-05T01:20:09.694Z,31.60
2018-02-05T01:22:37.135Z,28.40
2018-02-05T01:25:04.571Z,29.70
2018-02-05T01:27:32.787Z,28.63
2018-02-05T01:30:00.235Z,28.73
2018-02-05T01:32:27.679Z,29.80
2018-02-05T01:34:55.118Z,30.90
2018-02-05T01:37:23.326Z,30.33
2018-02-05T01:39:50.763Z,33.27
2018-02-05T01:42:18.211Z,33.53
2018-02-05T01:44:45.648Z,27.70
2018-02-05T01:47:13.854Z,28.80
2018-02-05T01:49:42.055Z,30.57
2018-02-05T01:52:10.262Z,26.53
2018-02-05T01:54:37.698Z,26.33
2018-02-05T01:57:05.142Z,28.60
2018-02-05T01:59:32.583Z,29.20
2018-02-05T02:02:00.786Z,26.77
2018-02-05T02:04:28.995Z,26.03
2018-02-05T02:06:57.202Z,23.37
2018-02-05T02:09:24.639Z,25.63
2018-02-05T02:11:52.083Z,22.67
2018-02-05T02:14:19.518Z,24.53
2018-02-05T02:16:47.735Z,25.00
2018-02-05T02:19:15.939Z,22.40
2018-02-05T02:21:43.378Z,26.23
2018-02-05T02:24:10.819Z,24.33
2018-02-05T02:26:38.262Z,24.90
2018-02-05T02:29:06.473Z,25.70
2018-02-05T02:31:34.683Z,24.53
2018-02-05T02:34:02.119Z,23.50
2018-02-05T02:36:29.567Z,23.50
2018-02-05T02:38:57.011Z,23.97
2018-02-05T02:41:25.226Z,21.90
2018-02-05T02:43:52.659Z,22.73
2018-02-05T02:46:20.108Z,23.40
2018-02-05T02:48:47.551Z,21.73
2018-02-05T02:51:15.765Z,24.63
2018-02-05T02:53:43.207Z,22.70
2018-02-05T02:56:10.648Z,23.10
2018-02-05T02:58:38.095Z,22.20
2018-02-05T03:01:06.301Z,21.90
2018-02-05T03:03:33.748Z,22.37
2018-02-05T03:06:01.198Z,22.83
2018-02-05T03:08:28.635Z,24.17
2018-02-05T03:10:56.083Z,21.80
2018-02-05T03:13:23.524Z,21.57
2018-02-05T03:15:50.972Z,21.97
2018-02-05T03:18:19.175Z,20.67
2018-02-05T03:20:46.620Z,21.57
2018-02-05T03:23:14.059Z,20.43
2018-02-05T03:25:41.503Z,20.50
2018-02-05T03:28:09.719Z,21.13
2018-02-05T03:30:37.160Z,21.23
2018-02-05T03:33:04.611Z,23.93
2018-02-05T03:35:32.051Z,23.90
2018-02-05T03:38:00.264Z,24.03
2018-02-05T03:40:27.703Z,26.17
2018-02-05T03:42:55.151Z,27.93
2018-02-05T03:45:22.590Z,25.90
2018-02-05T03:47:50.039Z,25.40
2018-02-05T03:50:17.476Z,26.50
2018-02-05T03:52:44.924Z,26.13
2018-02-05T03:55:13.131Z,25.80
2018-02-05T03:57:40.579Z,26.17
2018-02-05T04:00:08.025Z,24.70
2018-02-05T04:02:35.468Z,27.30
2018-02-05T04:05:02.916Z,26.50
2018-02-05T04:07:30.363Z,25.57
2018-02-05T04:09:57.803Z,25.53
2018-02-05T04:12:26.015Z,23.87
2018-02-05T04:14:53.572Z,24.83
2018-02-05T04:17:21.021Z,25.50
2018-02-05T04:19:48.459Z,24.40
2018-02-05T04:22:15.906Z,26.90
2018-02-05T04:24:43.343Z,26.97
2018-02-05T04:27:10.792Z,27.13
2018-02-05T04:29:38.999Z,26.40
2018-02-05T04:32:06.447Z,26.07
2018-02-05T04:34:33.896Z,26.53
2018-02-05T04:37:01.348Z,25.50
2018-02-05T04:39:28.787Z,24.30
2018-02-05T04:41:56.236Z,24.90
2018-02-05T04:44:23.675Z,26.10
2018-02-05T04:46:51.123Z,27.50
2018-02-05T04:49:18.559Z,24.43
2018-02-05T04:51:46.013Z,27.87
2018-02-05T04:54:14.215Z,26.90
2018-02-05T04:56:41.663Z,27.93
2018-02-05T04:59:09.105Z,30.10
2018-02-05T05:01:36.547Z,27.07
2018-02-05T05:04:04.756Z,27.60
2018-02-05T05:06:32.203Z,28.20
2018-02-05T05:08:59.643Z,26.50
2018-02-05T05:11:27.091Z,26.93
2018-02-05T05:13:55.299Z,26.43
2018-02-05T05:16:22.744Z,25.43
2018-02-05T05:18:50.191Z,24.33
2018-02-05T05:21:17.632Z,24.60
2018-02-05T05:23:45.843Z,27.73
2018-02-05T05:26:13.279Z,26.43
2018-02-05T05:28:40.723Z,27.00
2018-02-05T05:31:08.163Z,25.00
2018-02-05T05:33:36.379Z,26.10
2018-02-05T05:36:03.839Z,23.20
2018-02-05T05:38:32.052Z,23.73
2018-02-05T05:40:59.491Z,21.77
2018-02-05T05:43:28.447Z,22.80
2018-02-05T05:45:55.888Z,20.87
2018-02-05T05:48:23.335Z,23.50
2018-02-05T05:50:50.772Z,23.10
2018-02-05T05:53:18.983Z,21.10
2018-02-05T05:55:47.187Z,19.90
2018-02-05T05:58:14.631Z,20.73
2018-02-05T06:00:42.071Z,20.77
2018-02-05T06:03:09.520Z,21.60
2018-02-05T06:05:37.735Z,22.50
2018-02-05T06:08:05.179Z,19.97
2018-02-05T06:10:32.619Z,20.47
2018-02-05T06:13:00.068Z,20.80
2018-02-05T06:15:27.507Z,24.40
2018-02-05T06:17:54.951Z,21.53
2018-02-05T06:20:22.398Z,21.50
2018-02-05T06:22:50.607Z,21.10
2018-02-05T06:25:18.043Z,20.40
2018-02-05T06:27:45.491Z,21.00
2018-02-05T06:30:12.931Z,21.73
2018-02-05T06:32:41.144Z,21.47
2018-02-05T06:35:09.357Z,19.97
2018-02-05T06:37:36.803Z,20.23
2018-02-05T06:40:05.004Z,21.53
2018-02-05T06:42:33.224Z,19.33
2018-02-05T06:45:00.663Z,20.07
2018-02-05T06:47:28.111Z,19.43
2018-02-05T06:49:55.552Z,20.27
2018-02-05T06:52:35.590Z,22.73
2018-02-05T06:55:14.951Z,20.00
2018-02-05T06:57:42.404Z,21.33
2018-02-05T07:00:09.851Z,21.50
2018-02-05T07:02:38.072Z,20.30
2018-02-05T07:05:06.279Z,20.27
2018-02-05T07:07:33.731Z,21.00
2018-02-05T07:10:01.192Z,23.77
2018-02-05T07:12:28.639Z,20.17
2018-02-05T07:14:56.083Z,20.50
2018-02-05T07:17:24.307Z,21.60
2018-02-05T07:19:51.752Z,21.80
2018-02-05T07:22:19.196Z,22.87
2018-02-05T07:24:46.644Z,22.70
2018-02-05T07:27:14.851Z,21.20
2018-02-05T07:29:43.067Z,20.67
2018-02-05T07:32:11.272Z,20.83
2018-02-05T07:34:39.483Z,19.60
2018-02-05T07:37:06.924Z,19.30
2018-02-05T07:39:34.376Z,17.83
2018-02-05T07:42:01.815Z,18.90
2018-02-05T07:44:30.023Z,18.20
2018-02-05T07:46:57.462Z,18.87
2018-02-05T07:49:24.916Z,19.00
2018-02-05T07:51:52.356Z,18.30
2018-02-05T07:54:19.800Z,19.20
2018-02-05T07:56:47.248Z,18.50
2018-02-05T07:59:15.468Z,19.53
2018-02-05T08:01:43.701Z,18.20
2018-02-05T08:04:11.151Z,18.90
2018-02-05T08:06:39.384Z,19.27
2018-02-05T08:09:06.830Z,18.10
2018-02-05T08:11:35.042Z,18.07
2018-02-05T08:14:02.494Z,18.23
2018-02-05T08:16:29.932Z,18.73
2018-02-05T08:18:57.382Z,17.83
2018-02-05T08:21:25.587Z,17.30
2018-02-05T08:23:53.805Z,16.67
2018-02-05T08:26:22.012Z,18.63
2018-02-05T08:28:49.467Z,17.00
2018-02-05T08:31:17.668Z,16.93
2018-02-05T08:33:45.121Z,16.20
2018-02-05T08:36:14.064Z,15.43
2018-02-05T08:38:42.282Z,15.57
2018-02-05T08:41:09.746Z,16.70
2018-02-05T08:43:37.984Z,17.10
2018-02-05T08:46:05.395Z,15.60
2018-02-05T08:48:32.836Z,16.93
2018-02-05T08:51:00.271Z,17.80
2018-02-05T08:53:27.721Z,16.10
2018-02-05T08:55:55.165Z,17.30
2018-02-05T08:58:22.607Z,17.57
2018-02-05T09:00:50.047Z,17.57
2018-02-05T09:03:17.487Z,17.43
2018-02-05T09:05:45.703Z,16.10
2018-02-05T09:08:13.144Z,15.13
2018-02-05T09:10:40.596Z,17.20
2018-02-05T09:13:08.037Z,16.20
2018-02-05T09:15:35.492Z,15.20
2018-02-05T09:18:02.932Z,15.10
2018-02-05T09:20:30.379Z,15.67
2018-02-05T09:22:57.824Z,14.67
2018-02-05T09:25:25.271Z,13.60
2018-02-05T09:27:52.727Z,11.07
2018-02-05T09:30:20.172Z,10.93
2018-02-05T09:32:47.616Z,12.30
2018-02-05T09:35:15.060Z,8.87
2018-02-05T09:37:43.263Z,9.90
2018-02-05T09:40:12.321Z,8.50
2018-02-05T09:42:39.755Z,9.63
2018-02-05T09:45:07.975Z,10.30
2018-02-05T09:47:35.420Z,10.70
2018-02-05T09:50:02.866Z,9.53
2018-02-05T09:52:30.299Z,10.10
2018-02-05T09:54:58.504Z,9.57
2018-02-05T09:57:26.708Z,9.60
2018-02-05T09:59:54.148Z,8.70
2018-02-05T10:02:21.652Z,10.13
2018-02-05T10:04:49.100Z,10.47
2018-02-05T10:07:16.530Z,8.50
2018-02-05T10:09:44.744Z,10.23
2018-02-05T10:12:12.943Z,8.90
2018-02-05T10:14:41.151Z,9.43
2018-02-05T10:17:08.584Z,8.83
2018-02-05T10:19:36.027Z,9.47
2018-02-05T10:22:03.460Z,8.97
2018-02-05T10:24:30.899Z,8.30
2018-02-05T10:26:58.332Z,9.33
2018-02-05T10:29:25.775Z,8.57
2018-02-05T10:31:53.218Z,8.80
2018-02-05T10:34:20.659Z,7.87
2018-02-05T10:36:48.095Z,8.97
2018-02-05T10:39:16.299Z,10.13
2018-02-05T10:41:44.502Z,9.93
2018-02-05T10:44:12.704Z,8.60
2018-02-05T10:46:40.903Z,8.47
2018-02-05T10:49:08.348Z,9.13
2018-02-05T10:51:35.779Z,9.13
2018-02-05T10:54:03.215Z,9.70
2018-02-05T10:56:30.648Z,10.00
2018-02-05T10:58:58.084Z,9.40
2018-02-05T11:01:25.519Z,8.50
2018-02-05T11:03:52.951Z,8.40
2018-02-05T11:06:20.391Z,9.30
2018-02-05T11:08:47.831Z,8.63
2018-02-05T11:11:15.265Z,9.60
2018-02-05T11:13:42.699Z,10.03
2018-02-05T11:16:10.135Z,8.20
2018-02-05T11:18:37.583Z,9.00
2018-02-05T11:21:05.791Z,9.07
2018-02-05T11:23:34.004Z,6.93
2018-02-05T11:26:02.203Z,8.90
2018-02-05T11:28:29.635Z,7.50
2018-02-05T11:30:57.095Z,8.77
2018-02-05T11:33:24.524Z,9.03
2018-02-05T11:35:51.966Z,8.60
2018-02-05T11:38:19.405Z,8.20
2018-02-05T11:40:47.607Z,8.57
2018-02-05T11:43:15.811Z,8.60
2018-02-05T11:45:43.250Z,8.03
2018-02-05T11:48:10.683Z,8.10
2018-02-05T11:50:38.124Z,8.47
2018-02-05T11:53:05.556Z,8.43
2018-02-05T11:55:32.995Z,8.40
2018-02-05T11:58:01.219Z,8.60
2018-02-05T12:00:28.659Z,9.90
2018-02-05T12:02:56.096Z,8.67
2018-02-05T12:05:23.535Z,9.53
2018-02-05T12:07:51.745Z,8.97
2018-02-05T12:10:19.951Z,8.30
2018-02-05T12:12:47.388Z,9.57
2018-02-05T12:15:14.831Z,9.70
2018-02-05T12:17:42.263Z,10.10
2018-02-05T12:20:09.709Z,9.87
2018-02-05T12:22:37.144Z,8.80
2018-02-05T12:25:05.355Z,10.70
2018-02-05T12:27:32.792Z,10.00
2018-02-05T12:30:00.227Z,9.97
2018-02-05T12:32:27.659Z,10.00
2018-02-05T12:34:55.101Z,8.70
2018-02-05T12:37:22.533Z,8.70
2018-02-05T12:39:50.745Z,9.30
2018-02-05T12:42:18.948Z,8.97
2018-02-05T12:44:47.156Z,8.37
2018-02-05T12:47:14.590Z,9.53
2018-02-05T12:49:42.032Z,9.77
2018-02-05T12:52:09.472Z,9.60
2018-02-05T12:54:37.687Z,10.50
2018-02-05T12:57:05.126Z,9.13
2018-02-05T12:59:32.556Z,9.73
2018-02-05T13:02:00.899Z,9.30
2018-02-05T13:04:32.819Z,9.20
2018-02-05T13:07:01.032Z,8.83
2018-02-05T13:09:29.236Z,9.40
2018-02-05T13:11:56.684Z,8.93
2018-02-05T13:14:24.115Z,10.20
2018-02-05T13:16:51.555Z,8.87
2018-02-05T13:19:19.755Z,8.00
2018-02-05T13:21:48.072Z,10.10
2018-02-05T13:24:16.251Z,9.03
2018-02-05T13:26:44.463Z,9.80
2018-02-05T13:29:12.668Z,10.20
2018-02-05T13:31:40.871Z,10.13
2018-02-05T13:34:08.312Z,10.10
2018-02-05T13:36:35.755Z,10.20
2018-02-05T13:39:03.205Z,9.13
2018-02-05T13:41:31.415Z,9.30
2018-02-05T13:43:58.843Z,9.93
2018-02-05T13:46:26.283Z,9.10
2018-02-05T13:48:53.715Z,9.83
2018-02-05T13:51:21.155Z,11.00
2018-02-05T13:53:48.594Z,10.87
2018-02-05T13:56:16.804Z,9.33
2018-02-05T13:58:45.006Z,8.47
2018-02-05T14:01:13.211Z,9.70
2018-02-05T14:03:40.643Z,9.57
2018-02-05T14:06:08.092Z,9.67
2018-02-05T14:08:35.522Z,9.97
2018-02-05T14:11:02.968Z,10.23
2018-02-05T14:13:30.403Z,10.47
2018-02-05T14:15:58.615Z,10.67
2018-02-05T14:18:26.051Z,10.40
2018-02-05T14:20:53.497Z,11.43
2018-02-05T14:23:20.928Z,11.23
2018-02-05T14:25:49.142Z,11.13
2018-02-05T14:28:17.395Z,10.17
2018-02-05T14:30:44.824Z,10.60
2018-02-05T14:33:13.028Z,10.40
2018-02-05T14:35:41.248Z,10.27
2018-02-05T14:38:08.679Z,11.40
2018-02-05T14:40:36.120Z,11.27
2018-02-05T14:43:03.580Z,10.70
2018-02-05T14:45:31.007Z,11.40
2018-02-05T14:47:58.451Z,10.30
2018-02-05T14:50:25.908Z,10.23
2018-02-05T14:52:53.347Z,9.97
2018-02-05T14:55:20.779Z,11.20
2018-02-05T14:57:48.227Z,11.50
2018-02-05T15:00:15.669Z,11.00
2018-02-05T15:02:43.107Z,10.43
2018-02-05T15:05:10.547Z,10.60
2018-02-05T15:07:37.988Z,12.20
2018-02-05T15:10:05.427Z,11.83
2018-02-05T15:12:33.643Z,11.00
2018-02-05T15:15:01.849Z,10.73
2018-02-05T15:17:29.294Z,11.40
2018-02-05T15:19:56.736Z,10.87
2018-02-05T15:22:24.179Z,11.47
2018-02-05T15:24:52.380Z,10.77
2018-02-05T15:27:20.587Z,11.50
2018-02-05T15:29:48.025Z,11.23
2018-02-05T15:32:15.479Z,10.00
2018-02-05T15:34:42.921Z,9.70
2018-02-05T15:37:11.127Z,10.17
2018-02-05T15:39:38.564Z,10.13
2018-02-05T15:42:06.008Z,10.80
2018-02-05T15:44:33.444Z,10.10
2018-02-05T15:47:01.920Z,10.47
2018-02-05T15:49:29.351Z,10.53
2018-02-05T15:51:56.796Z,9.83
2018-02-05T15:54:24.242Z,10.47
2018-02-05T15:56:51.688Z,9.90
2018-02-05T15:59:19.889Z,11.10
2018-02-05T16:01:48.102Z,10.53
2018-02-05T16:04:15.540Z,10.43
2018-02-05T16:06:42.987Z,10.67
2018-02-05T16:09:10.481Z,10.40
2018-02-05T16:11:37.867Z,11.30
2018-02-05T16:14:05.315Z,10.63
2018-02-05T16:16:32.752Z,10.40
2018-02-05T16:19:00.967Z,10.70
2018-02-05T16:21:29.172Z,10.53
2018-02-05T16:23:56.645Z,11.07
2018-02-05T16:26:24.864Z,10.83
2018-02-05T16:28:52.304Z,11.27
2018-02-05T16:31:19.746Z,11.30
2018-02-05T16:33:47.255Z,10.30
2018-02-05T16:36:14.692Z,10.10
2018-02-05T16:38:42.139Z,10.87
2018-02-05T16:41:09.570Z,10.50
2018-02-05T16:43:37.034Z,10.87
2018-02-05T16:46:04.468Z,11.37
2018-02-05T16:48:31.914Z,11.30
2018-02-05T16:50:59.348Z,10.23
2018-02-05T16:53:27.571Z,11.07
2018-02-05T16:55:55.001Z,10.83
2018-02-05T16:58:22.446Z,10.63
2018-02-05T17:00:49.880Z,10.63
2018-02-05T17:03:17.324Z,10.17
2018-02-05T17:05:44.751Z,11.00
2018-02-05T17:08:12.199Z,10.10
2018-02-05T17:10:40.405Z,10.73
2018-02-05T17:13:07.863Z,9.73
2018-02-05T17:15:35.303Z,9.20
2018-02-05T17:18:02.748Z,10.33
2018-02-05T17:20:30.951Z,11.30
2018-02-05T17:22:58.383Z,9.53
2018-02-05T17:25:25.835Z,10.23
2018-02-05T17:27:53.285Z,10.43
2018-02-05T17:30:21.496Z,10.77
2018-02-05T17:32:48.940Z,11.10
2018-02-05T17:35:16.388Z,11.37
2018-02-05T17:37:43.831Z,10.80
2018-02-05T17:40:11.872Z,11.03
2018-02-05T17:42:39.308Z,10.73
2018-02-05T17:45:06.755Z,10.93
2018-02-05T17:47:34.190Z,9.97
2018-02-05T17:50:01.641Z,11.97
2018-02-05T17:52:29.847Z,10.77
2018-02-05T17:54:57.347Z,11.13
2018-02-05T17:57:25.825Z,10.93
2018-02-05T17:59:54.035Z,12.07
2018-02-05T18:02:22.239Z,10.50
2018-02-05T18:04:49.683Z,10.90
2018-02-05T18:07:17.131Z,12.20
2018-02-05T18:09:44.579Z,11.23
2018-02-05T18:12:12.028Z,12.67
2018-02-05T18:14:40.235Z,11.30
2018-02-05T18:17:08.448Z,11.37
2018-02-05T18:19:36.890Z,11.27
2018-02-05T18:22:04.343Z,11.80
2018-02-05T18:24:31.783Z,12.03
2018-02-05T18:26:59.232Z,11.27
2018-02-05T18:29:26.679Z,11.53
2018-02-05T18:31:54.124Z,12.70
2018-02-05T18:34:21.580Z,12.23
2018-02-05T18:36:49.028Z,12.60
2018-02-05T18:39:16.467Z,11.60
2018-02-05T18:41:43.919Z,12.23
2018-02-05T18:44:11.360Z,13.50
2018-02-05T18:46:38.807Z,12.63
2018-02-05T18:49:06.257Z,13.47
2018-02-05T18:51:33.696Z,12.10
2018-02-05T18:54:01.912Z,14.07
2018-02-05T18:56:41.217Z,12.50
2018-02-05T18:59:08.672Z,11.73
2018-02-05T19:01:36.120Z,13.07
2018-02-05T19:04:04.327Z,12.57
2018-02-05T19:06:31.784Z,13.10
2018-02-05T19:08:59.227Z,13.10
2018-02-05T19:11:26.672Z,12.90
2018-02-05T19:13:54.120Z,11.77
2018-02-05T19:16:21.563Z,12.20
2018-02-05T19:18:49.013Z,13.53
2018-02-05T19:21:16.448Z,13.67
2018-02-05T19:23:43.896Z,14.40
2018-02-05T19:26:11.340Z,12.80
2018-02-05T19:28:39.548Z,12.90
2018-02-05T19:31:07.758Z,12.70
2018-02-05T19:33:35.207Z,13.40
2018-02-05T19:36:02.711Z,13.27
2018-02-05T19:38:30.941Z,11.80
2018-02-05T19:40:58.375Z,13.33
2018-02-05T19:43:25.857Z,13.33
2018-02-05T19:45:53.383Z,14.90
2018-02-05T19:48:20.827Z,13.47
2018-02-05T19:50:49.095Z,13.80
2018-02-05T19:53:16.532Z,13.80
2018-02-05T19:55:43.984Z,13.80
2018-02-05T19:58:11.434Z,16.33
2018-02-05T20:00:38.880Z,13.13
2018-02-05T20:03:06.379Z,14.20
2018-02-05T20:05:33.811Z,14.77
2018-02-05T20:08:01.255Z,14.07
2018-02-05T20:10:28.715Z,14.83
2018-02-05T20:12:56.151Z,14.10
2018-02-05T20:15:23.626Z,14.43
2018-02-05T20:17:51.094Z,13.37
2018-02-05T20:20:18.574Z,14.07
2018-02-05T20:22:46.011Z,13.37
2018-02-05T20:25:13.520Z,13.57
2018-02-05T20:27:41.005Z,13.50
2018-02-05T20:30:08.439Z,14.23
2018-02-05T20:32:35.891Z,13.37
2018-02-05T20:35:03.325Z,13.17
2018-02-05T20:37:31.677Z,14.80
2018-02-05T20:39:59.104Z,13.40
2018-02-05T20:42:26.552Z,14.27
2018-02-05T20:44:53.996Z,13.20
2018-02-05T20:47:21.481Z,13.80
2018-02-05T20:49:48.912Z,14.10
2018-02-05T20:52:17.187Z,14.37
2018-02-05T20:54:44.658Z,14.07
2018-02-05T20:57:12.088Z,15.00
2018-02-05T20:59:40.360Z,14.17
2018-02-05T21:02:07.784Z,13.60
2018-02-05T21:04:35.242Z,14.90
2018-02-05T21:07:02.718Z,13.73
2018-02-05T21:09:30.158Z,14.47
2018-02-05T21:11:57.596Z,14.77
2018-02-05T21:14:25.807Z,15.00
2018-02-05T21:16:53.306Z,14.13
2018-02-05T21:19:20.736Z,14.30
2018-02-05T21:21:48.187Z,13.87
2018-02-05T21:24:15.631Z,13.73
2018-02-05T21:26:43.113Z,15.17
2018-02-05T21:29:10.557Z,14.03
2018-02-05T21:31:37.999Z,13.80
2018-02-05T21:34:05.495Z,14.13
2018-02-05T21:36:32.966Z,15.80
2018-02-05T21:39:00.405Z,12.43
2018-02-05T21:41:28.611Z,14.57
2018-02-05T21:43:56.059Z,12.43
2018-02-05T21:46:23.495Z,14.07
2018-02-05T21:48:50.940Z,15.50
2018-02-05T21:51:19.159Z,12.40
2018-02-05T21:53:46.600Z,14.33
2018-02-05T21:56:14.052Z,14.37
2018-02-05T21:58:41.548Z,14.00
2018-02-05T22:01:08.979Z,13.00
2018-02-05T22:03:36.415Z,13.53
2018-02-05T22:06:03.860Z,12.13
2018-02-05T22:08:31.344Z,14.60
2018-02-05T22:10:59.516Z,13.00
2018-02-05T22:13:26.955Z,12.13
2018-02-05T22:15:54.405Z,14.63
2018-02-05T22:18:21.851Z,14.10
2018-02-05T22:20:50.076Z,13.77
2018-02-05T22:23:17.553Z,14.17
2018-02-05T22:25:44.987Z,14.23
2018-02-05T22:28:12.423Z,14.13
2018-02-05T22:30:39.893Z,15.20
2018-02-05T22:33:08.243Z,12.50
2018-02-05T22:35:35.690Z,13.07
2018-02-05T22:38:03.136Z,13.17
2018-02-05T22:40:30.592Z,10.67
2018-02-05T22:42:58.035Z,12.70
2018-02-05T22:45:25.482Z,13.70
2018-02-05T22:47:53.700Z,12.20
2018-02-05T22:50:21.164Z,12.23
2018-02-05T22:52:48.610Z,11.80
2018-02-05T22:55:16.067Z,12.27
2018-02-05T22:57:43.515Z,12.77
2018-02-05T23:00:10.971Z,12.30
2018-02-05T23:02:39.174Z,11.67
2018-02-05T23:05:07.387Z,12.23
2018-02-05T23:07:34.828Z,11.30
2018-02-05T23:10:02.271Z,11.87
2018-02-05T23:12:29.710Z,13.30
2018-02-05T23:14:57.935Z,12.60
2018-02-05T23:17:25.380Z,12.43
2018-02-05T23:19:52.816Z,11.50
2018-02-05T23:22:20.276Z,13.50
2018-02-05T23:24:47.716Z,13.10
2018-02-05T23:27:15.172Z,10.87
2018-02-05T23:29:42.611Z,11.20
2018-02-05T23:32:10.059Z,12.30
2018-02-05T23:34:37.504Z,11.70
2018-02-05T23:37:04.951Z,11.60
2018-02-05T23:39:32.399Z,13.37
2018-02-05T23:41:59.846Z,11.20
2018-02-05T23:44:27.288Z,12.50
2018-02-05T23:46:55.504Z,11.17
2018-02-05T23:49:22.945Z,10.90
2018-02-05T23:51:50.391Z,11.23
2018-02-05T23:54:17.832Z,10.40
2018-02-05T23:56:46.051Z,10.30
2018-02-05T23:59:13.487Z,11.30
